Warning: Javascript must be enabled to use all the features on this page!


Page Loading - Please Wait...

Click to hideNews Bulletins

Peak Streamflow for the Nation

USGS 01379500 Passaic River near Chatham NJ

Morris County, New Jersey
Hydrologic Unit Code 02030103
Latitude  40°43'34", Longitude  74°23'23" NAD83
Drainage area 100  square miles
Contributing drainage area 100  square miles
Gage datum 193.51 feet above NGVD29
Output formats
Table
Graph
Tab-separated file
peakfq (watstore) format
Reselect output format
Water
Year
Date Gage
Height
(feet)
Stream-
flow
(cfs)
1904 1903-10-11 7.203 2,3102
1905 1905-01-09 8.303 3,0002
1906 1906-04-16 5.303 1,1902
1907 1907-03-18 8.003 2,8602
1908 1908-02-28 5.903 1,6002
1909 1909-02-25 5.503 1,3602
1910 1910-03-04 7.003 2,2602
1911 1910-11-05 3.903 5252
1938 1938-09-21 6.86 1,910
1939 1939-02-05 5.62 972
1940 1940-03-15 5.79 1,090
1941 1941-02-09 5.30 756
1942 1942-08-16 7.32 2,020
1943 1942-12-31 6.21 1,420
1944 1944-04-26 5.61 964
1945 1945-09-19 5.712 1,040
1946 1946-06-04 5.71 1,040
1947 1947-04-05 5.47 869
1948 1947-11-12 6.352 1,410
1949 1949-01-01 6.78 1,710
1950 1950-03-23 5.17 670
1951 1950-12-08 5.71 1,010
1952 1952-06-01 6.17 1,290
1953 1953-03-16 5.95 1,150
1954 1953-12-14 5.13 651
1955 1955-08-19 6.31 1,390
1956 1955-10-16 5.95 1,150
1957 1957-04-07 5.86 1,100
1958 1958-03-02 5.94 1,140
1959 1958-10-26 5.30 770
1960 1960-09-12 5.88 1,110
1961 1961-02-27 6.172 1,290
1962 1962-03-12 6.41 1,450
1963 1963-03-09 5.66 980
1964 1964-01-09 5.47 872
1965 1965-02-10 5.66 980
1966 1966-02-13 5.73 1,010
1967 1967-03-07 6.22 1,320
1968 1968-05-29 7.90 2,560
1969 1969-07-28 6.68 1,640
1970 1970-04-02 6.37 1,470
1971 1971-08-28 8.16 2,540
1972 1972-06-22 6.57 1,520
1973 1973-08-02 9.36 3,380
1974 1973-12-21 6.36 1,400
1975 1975-09-27 8.14 2,520
1976 1975-10-19 6.10 1,240
1977 1977-03-22 6.35 1,390
1978 1978-08-12 6.61 1,540
1979 1979-02-26 6.88 1,710
1980 1980-03-25 6.32 1,370
1981 1981-05-13 5.52 899
1982 1982-01-04 6.10 1,240
1983 1983-03-21 6.34 1,380
1984 1984-04-06 7.26 1,930
1985 1985-09-28   960
1986 1986-04-18 6.63 1,550
1987 1987-04-04 6.04 1,210
1988 1988-07-26 6.07 1,220
1989 1989-09-20 6.26 1,330
1990 1989-10-22 6.01 1,190
1991 1990-10-13 6.12 1,250
1992 1992-06-05 6.87 1,700
1993 1993-04-01 6.13 1,260
1994 1994-01-30 7.02 1,970
1995 1995-03-10 5.10 633
1996 1996-01-19 6.38 1,400
1997 1996-10-21 7.49 2,080
1998 1998-05-11 6.19 1,290
1999 1999-09-17 7.60 2,210
2000 2000-04-22 5.38 811
2001 2001-06-17 5.69 1,000
2002 2002-05-18 5.21 707
2003 2003-06-07 5.952 1,170
2004 2004-02-06 5.73 1,030
2005 2005-04-02 6.07 1,240
2006 2005-10-12 6.66 1,590
2007 2007-04-17 7.45 2,110
2008 2008-03-08 5.83 1,090
2009 2008-12-12 5.67 992
2010 2010-03-15 7.91 2,730
2011 2011-08-29 7.76 2,620
2012 2011-12-08 5.29 799
2013 2013-06-10 5.71 1,120
2014 2014-04-30 6.46 1,660
2015 2015-03-15 5.54 989
2016 2016-02-25 5.67 1,100
2017 2017-04-04 5.28 808
2018 2018-04-16 5.51 983
?
  Peak Gage-Height Qualification Codes.
?
  Peak Streamflow Qualification Codes.